Time;durP1;ratioP1;P1;durP2;ratioP2;P2;SDS_P1;SDS_P2;PMS_P1;PMS_P2;Temp;Humidity;BMP_temperature;BMP_pressure;BME280_temperature;BME280_humidity;BME280_pressure;Samples;Min_cycle;Max_cycle;Signal;HPM_P1;HPM_P2
2022/04/13 00:00:35;;;;;;;;;;;20.60;99.90;;;;;;5052442;28;19925;-62
2022/04/13 00:03:02;;;;;;;;;;;20.60;99.90;;;;;;5045527;28;20306;-62
2022/04/13 00:05:30;;;;;;;;;;;20.50;99.90;;;;;;5054815;28;19928;-62
2022/04/13 00:07:58;;;;;;;;;;;20.60;99.90;;;;;;5060356;28;20404;-62
2022/04/13 00:10:25;;;;;;;;;;;20.60;99.90;;;;;;5053723;28;20302;-61
2022/04/13 00:12:52;;;;;;;;;;;20.60;99.90;;;;;;5053237;28;20403;-62
2022/04/13 00:15:19;;;;;;;;;;;20.50;99.90;;;;;;5067693;28;19925;-61
2022/04/13 00:17:46;;;;;;;;;;;20.60;99.90;;;;;;5062601;28;20408;-61
2022/04/13 00:20:13;;;;;;;;;;;20.60;99.90;;;;;;5061165;28;19924;-62
2022/04/13 00:22:41;;;;;;;;;;;20.50;99.90;;;;;;5054608;28;20433;-62
2022/04/13 00:25:08;;;;;;;;;;;20.50;99.90;;;;;;5058942;28;19924;-61
2022/04/13 00:27:35;;;;;;;;;;;20.50;99.90;;;;;;5057151;28;20274;-62
2022/04/13 00:30:03;;;;;;;;;;;20.50;99.90;;;;;;5056157;28;20301;-62
2022/04/13 00:32:32;;;;;;;;;;;20.50;99.90;;;;;;5046144;28;19925;-61
2022/04/13 00:35:04;;;;;;;;;;;20.50;99.90;;;;;;5055004;28;20681;-62
2022/04/13 00:37:31;;;;;;;;;;;20.50;99.90;;;;;;5063773;28;20365;-60
2022/04/13 00:39:59;;;;;;;;;;;20.50;99.90;;;;;;5056845;28;19943;-63
2022/04/13 00:42:28;;;;;;;;;;;20.50;99.90;;;;;;5062049;28;19921;-65
2022/04/13 00:44:55;;;;;;;;;;;20.50;99.90;;;;;;5060047;28;19924;-62
2022/04/13 00:47:22;;;;;;;;;;;20.50;99.90;;;;;;5064182;28;19934;-62
2022/04/13 00:49:49;;;;;;;;;;;20.50;99.90;;;;;;5064390;28;19932;-61
2022/04/13 00:52:18;;;;;;;;;;;20.50;99.90;;;;;;5058576;28;19924;-61
2022/04/13 00:54:47;;;;;;;;;;;20.50;99.90;;;;;;5049713;28;19924;-61
2022/04/13 00:57:15;;;;;;;;;;;20.50;99.90;;;;;;5058036;28;19924;-62
2022/04/13 00:59:43;;;;;;;;;;;20.50;99.90;;;;;;5055841;28;19925;-62
2022/04/13 01:02:12;;;;;;;;;;;20.50;99.90;;;;;;5062162;28;20328;-61
2022/04/13 01:04:40;;;;;;;;;;;20.50;99.90;;;;;;5061757;28;19925;-62
2022/04/13 01:07:08;;;;;;;;;;;20.50;99.90;;;;;;5055402;28;19924;-62
2022/04/13 01:09:36;;;;;;;;;;;20.50;99.90;;;;;;5048626;28;20337;-62
2022/04/13 01:12:03;;;;;;;;;;;20.50;99.90;;;;;;5056496;28;19925;-62
2022/04/13 01:14:30;;;;;;;;;;;20.50;99.90;;;;;;5047110;28;20305;-60
2022/04/13 01:16:59;;;;;;;;;;;20.50;99.90;;;;;;5059594;28;19931;-62
2022/04/13 01:19:27;;;;;;;;;;;20.50;99.90;;;;;;5048543;28;20397;-61
2022/04/13 01:21:59;;;;;;;;;;;20.50;99.90;;;;;;5034700;28;20412;-62
2022/04/13 01:24:26;;;;;;;;;;;20.50;99.90;;;;;;5057289;28;19931;-61
2022/04/13 01:26:53;;;;;;;;;;;20.50;99.90;;;;;;5061815;28;19948;-61
2022/04/13 01:29:20;;;;;;;;;;;20.50;99.90;;;;;;5048594;28;20264;-62
2022/04/13 01:31:49;;;;;;;;;;;20.50;99.90;;;;;;5061979;28;19935;-62
2022/04/13 01:34:16;;;;;;;;;;;20.50;99.90;;;;;;5056267;28;19943;-62
2022/04/13 01:36:43;;;;;;;;;;;20.40;99.90;;;;;;5060725;28;19928;-63
2022/04/13 01:39:10;;;;;;;;;;;20.40;99.90;;;;;;5057365;28;20547;-62
2022/04/13 01:41:38;;;;;;;;;;;20.40;99.90;;;;;;5059783;28;20270;-62
2022/04/13 01:44:05;;;;;;;;;;;20.40;99.90;;;;;;5063020;28;20293;-61
2022/04/13 01:46:31;;;;;;;;;;;20.50;99.90;;;;;;5063958;28;20304;-61
2022/04/13 01:48:58;;;;;;;;;;;20.40;99.90;;;;;;5063886;28;19936;-62
2022/04/13 01:51:25;;;;;;;;;;;20.40;99.90;;;;;;5062282;28;20436;-63
2022/04/13 01:53:53;;;;;;;;;;;20.40;99.90;;;;;;5066596;28;19935;-62
2022/04/13 01:56:20;;;;;;;;;;;20.40;99.90;;;;;;5053510;28;20314;-63
2022/04/13 01:58:47;;;;;;;;;;;20.40;99.90;;;;;;5061990;28;19924;-61
2022/04/13 02:01:14;;;;;;;;;;;20.40;99.90;;;;;;5063810;28;19924;-60
2022/04/13 02:03:41;;;;;;;;;;;20.40;99.90;;;;;;5064305;28;19920;-61
2022/04/13 02:06:09;;;;;;;;;;;20.40;99.90;;;;;;5061079;28;19925;-61
2022/04/13 02:08:36;;;;;;;;;;;20.40;99.90;;;;;;5057592;28;20163;-63
2022/04/13 02:11:04;;;;;;;;;;;20.40;99.90;;;;;;5055855;28;19925;-63
2022/04/13 02:13:31;;;;;;;;;;;20.40;99.90;;;;;;5060259;28;20708;-62
2022/04/13 02:15:58;;;;;;;;;;;20.40;99.90;;;;;;5055379;28;20427;-62
2022/04/13 02:18:25;;;;;;;;;;;20.40;99.90;;;;;;5061371;28;19931;-62
2022/04/13 02:20:53;;;;;;;;;;;20.40;99.90;;;;;;5065523;28;19935;-61
2022/04/13 02:23:20;;;;;;;;;;;20.40;99.90;;;;;;5065674;28;19924;-62
2022/04/13 02:25:47;;;;;;;;;;;20.40;99.90;;;;;;5063720;28;19921;-60
2022/04/13 02:28:14;;;;;;;;;;;20.40;99.90;;;;;;5065226;28;20416;-60
2022/04/13 02:30:41;;;;;;;;;;;20.40;99.90;;;;;;5058225;28;19928;-60
2022/04/13 02:33:12;;;;;;;;;;;20.40;99.90;;;;;;5059178;28;19928;-62
2022/04/13 02:35:39;;;;;;;;;;;20.40;99.90;;;;;;5062767;28;19931;-61
2022/04/13 02:38:07;;;;;;;;;;;20.40;99.90;;;;;;5061194;28;20431;-61
2022/04/13 02:40:34;;;;;;;;;;;20.40;99.90;;;;;;5062975;28;19935;-61
2022/04/13 02:43:01;;;;;;;;;;;20.40;99.90;;;;;;5061079;28;20491;-62
2022/04/13 02:45:29;;;;;;;;;;;20.40;99.90;;;;;;5060203;28;20308;-62
2022/04/13 02:47:56;;;;;;;;;;;20.40;99.90;;;;;;5047438;28;19940;-62
2022/04/13 02:50:23;;;;;;;;;;;20.40;99.90;;;;;;5064519;28;19924;-62
2022/04/13 02:52:54;;;;;;;;;;;20.40;99.90;;;;;;5058811;28;19929;-62
2022/04/13 02:55:22;;;;;;;;;;;20.40;99.90;;;;;;5061661;28;19928;-63
2022/04/13 02:57:50;;;;;;;;;;;20.40;99.90;;;;;;5061042;28;20294;-63
2022/04/13 03:00:17;;;;;;;;;;;20.40;99.90;;;;;;5062404;28;19924;-63
2022/04/13 03:02:44;;;;;;;;;;;20.40;99.90;;;;;;5058474;28;19931;-62
2022/04/13 03:05:12;;;;;;;;;;;20.40;99.90;;;;;;5053852;28;19931;-61
2022/04/13 03:07:39;;;;;;;;;;;20.30;99.90;;;;;;5047318;28;19932;-62
2022/04/13 03:10:06;;;;;;;;;;;20.30;99.90;;;;;;5058375;28;19928;-62
2022/04/13 03:12:34;;;;;;;;;;;20.30;99.90;;;;;;5065094;28;19931;-61
2022/04/13 03:15:08;;;;;;;;;;;20.30;99.90;;;;;;5065449;28;19931;-65
2022/04/13 03:17:35;;;;;;;;;;;20.30;99.90;;;;;;5064630;28;19920;-62
2022/04/13 03:20:02;;;;;;;;;;;20.30;99.90;;;;;;5055417;28;19935;-63
2022/04/13 03:22:29;;;;;;;;;;;20.30;99.90;;;;;;5047698;28;19924;-61
2022/04/13 03:24:59;;;;;;;;;;;20.30;99.90;;;;;;5062403;28;19927;-62
2022/04/13 03:27:26;;;;;;;;;;;20.30;99.90;;;;;;5055314;28;20428;-62
2022/04/13 03:29:53;;;;;;;;;;;20.30;99.90;;;;;;5062392;28;19928;-63
2022/04/13 03:32:20;;;;;;;;;;;20.30;99.90;;;;;;5064684;28;19928;-62
2022/04/13 03:34:47;;;;;;;;;;;20.30;99.90;;;;;;5062018;28;19931;-62
2022/04/13 03:37:14;;;;;;;;;;;20.30;99.90;;;;;;5054062;28;20343;-61
2022/04/13 03:39:41;;;;;;;;;;;20.30;99.90;;;;;;5054837;28;20313;-61
2022/04/13 03:42:09;;;;;;;;;;;20.30;99.90;;;;;;5055115;28;20357;-61
2022/04/13 03:44:36;;;;;;;;;;;20.30;99.90;;;;;;5063730;28;19924;-62
2022/04/13 03:47:03;;;;;;;;;;;20.30;99.90;;;;;;5068732;28;20412;-62
2022/04/13 03:49:30;;;;;;;;;;;20.30;99.90;;;;;;5062226;28;19924;-61
2022/04/13 03:51:57;;;;;;;;;;;20.30;99.90;;;;;;5057400;28;19924;-61
2022/04/13 03:54:25;;;;;;;;;;;20.30;99.90;;;;;;5062798;28;19925;-61
2022/04/13 03:56:53;;;;;;;;;;;20.30;99.90;;;;;;5059025;28;19940;-61
2022/04/13 03:59:22;;;;;;;;;;;20.50;99.90;;;;;;5074010;28;19920;-59
2022/04/13 04:01:49;;;;;;;;;;;20.70;99.90;;;;;;5066246;28;19931;-59
2022/04/13 04:04:16;;;;;;;;;;;20.90;99.90;;;;;;5060513;28;19932;-55
2022/04/13 04:06:43;;;;;;;;;;;21.20;99.90;;;;;;5062250;28;19935;-59
2022/04/13 04:09:11;;;;;;;;;;;21.40;99.90;;;;;;5064505;28;19931;-60
2022/04/13 04:11:38;;;;;;;;;;;21.70;99.90;;;;;;5061763;28;19924;-61
2022/04/13 04:14:05;;;;;;;;;;;21.90;99.90;;;;;;5067399;28;19926;-59
2022/04/13 04:16:32;;;;;;;;;;;22.10;99.90;;;;;;5060804;28;19940;-61
2022/04/13 04:18:59;;;;;;;;;;;22.20;99.90;;;;;;5056849;28;19935;-58
2022/04/13 04:21:26;;;;;;;;;;;22.30;99.90;;;;;;5063479;28;20315;-59
2022/04/13 04:23:53;;;;;;;;;;;22.30;99.90;;;;;;5063450;28;19928;-60
2022/04/13 04:26:20;;;;;;;;;;;22.30;99.90;;;;;;5062265;28;19925;-61
2022/04/13 04:28:48;;;;;;;;;;;22.30;99.90;;;;;;5063037;28;20238;-60
2022/04/13 04:31:19;;;;;;;;;;;22.30;99.90;;;;;;5059939;28;20407;-61
2022/04/13 04:33:46;;;;;;;;;;;22.30;99.90;;;;;;5062932;28;19924;-61
2022/04/13 04:36:13;;;;;;;;;;;22.30;99.90;;;;;;5061546;28;20328;-61
2022/04/13 04:38:40;;;;;;;;;;;22.30;99.90;;;;;;5058995;28;19924;-62
2022/04/13 04:41:07;;;;;;;;;;;22.20;99.90;;;;;;5056938;28;20098;-60
2022/04/13 04:43:35;;;;;;;;;;;22.20;99.90;;;;;;5061251;28;20389;-61
2022/04/13 04:46:02;;;;;;;;;;;22.20;99.90;;;;;;5062411;28;19924;-60
2022/04/13 04:48:29;;;;;;;;;;;22.20;99.90;;;;;;5061275;28;19920;-59
2022/04/13 04:50:56;;;;;;;;;;;22.10;99.90;;;;;;5060743;28;19931;-61
2022/04/13 04:53:26;;;;;;;;;;;22.10;99.90;;;;;;5065531;28;19931;-62
2022/04/13 04:55:53;;;;;;;;;;;22.10;99.90;;;;;;5057174;28;19924;-62
2022/04/13 04:58:20;;;;;;;;;;;22.10;99.90;;;;;;5050694;28;20468;-60
2022/04/13 05:00:47;;;;;;;;;;;22.10;99.90;;;;;;5059759;28;19927;-61
2022/04/13 05:03:14;;;;;;;;;;;22.00;99.90;;;;;;5052264;28;19940;-62
2022/04/13 05:05:41;;;;;;;;;;;22.00;99.90;;;;;;5060724;28;20377;-62
2022/04/13 05:08:08;;;;;;;;;;;22.00;99.90;;;;;;5062558;28;19931;-62
2022/04/13 05:10:36;;;;;;;;;;;21.90;99.90;;;;;;5063054;28;19921;-62
2022/04/13 05:13:03;;;;;;;;;;;21.90;99.90;;;;;;5059650;28;20369;-61
2022/04/13 05:15:31;;;;;;;;;;;21.80;99.90;;;;;;5063720;28;19924;-61
2022/04/13 05:17:58;;;;;;;;;;;21.80;99.90;;;;;;5059807;28;19924;-60
2022/04/13 05:20:26;;;;;;;;;;;21.80;99.90;;;;;;5059916;28;19925;-61
2022/04/13 05:22:53;;;;;;;;;;;21.80;99.90;;;;;;5042503;28;20333;-61
2022/04/13 05:25:20;;;;;;;;;;;21.80;99.90;;;;;;5058015;28;19925;-62
2022/04/13 05:27:47;;;;;;;;;;;21.80;99.90;;;;;;5064734;28;19924;-64
2022/04/13 05:30:14;;;;;;;;;;;21.70;99.90;;;;;;5064434;28;19935;-62
2022/04/13 05:33:00;;;;;;;;;;;21.70;99.90;;;;;;5058798;28;19920;-62
2022/04/13 05:35:28;;;;;;;;;;;21.70;99.90;;;;;;5063459;28;19925;-61
2022/04/13 05:37:56;;;;;;;;;;;21.70;99.90;;;;;;5072081;28;20141;-62
2022/04/13 05:40:24;;;;;;;;;;;21.60;99.90;;;;;;5062403;28;19935;-62
2022/04/13 05:42:53;;;;;;;;;;;21.60;99.90;;;;;;5061503;28;19940;-60
2022/04/13 05:45:20;;;;;;;;;;;21.60;99.90;;;;;;5059545;28;20424;-62
2022/04/13 05:47:47;;;;;;;;;;;21.60;99.90;;;;;;5061337;28;20252;-62
2022/04/13 05:50:15;;;;;;;;;;;21.60;99.90;;;;;;5059128;28;20176;-60
2022/04/13 05:52:43;;;;;;;;;;;21.60;99.90;;;;;;5059706;28;20305;-59
2022/04/13 05:55:10;;;;;;;;;;;21.60;99.90;;;;;;5045221;28;20629;-60
2022/04/13 05:57:37;;;;;;;;;;;21.50;99.90;;;;;;5056472;28;19931;-59
2022/04/13 06:00:06;;;;;;;;;;;21.50;99.90;;;;;;5062997;28;19928;-60
2022/04/13 06:02:34;;;;;;;;;;;21.50;99.90;;;;;;5040982;28;19944;-58
2022/04/13 06:05:02;;;;;;;;;;;21.50;99.90;;;;;;5059314;28;19932;-59
2022/04/13 06:07:29;;;;;;;;;;;21.50;99.90;;;;;;5061332;28;19935;-63
2022/04/13 06:10:01;;;;;;;;;;;21.50;99.90;;;;;;5059754;28;19947;-60
2022/04/13 06:12:28;;;;;;;;;;;21.60;99.90;;;;;;5034639;28;20393;-60
2022/04/13 06:15:05;;;;;;;;;;;21.60;99.90;;;;;;5058707;28;19925;-61
2022/04/13 06:17:32;;;;;;;;;;;21.60;99.90;;;;;;5057542;28;19932;-63
2022/04/13 06:19:59;;;;;;;;;;;21.50;99.90;;;;;;5040617;28;19928;-60
2022/04/13 06:22:29;;;;;;;;;;;21.40;99.70;;;;;;5060956;28;19925;-66
2022/04/13 06:24:57;;;;;;;;;;;21.30;97.30;;;;;;5058951;28;19921;-57
2022/04/13 06:27:24;;;;;;;;;;;21.10;96.20;;;;;;5059216;28;20028;-66
2022/04/13 06:29:52;;;;;;;;;;;21.10;95.60;;;;;;5058548;28;19924;-57
2022/04/13 06:32:19;;;;;;;;;;;21.00;95.30;;;;;;5059700;28;20670;-61
2022/04/13 06:34:46;;;;;;;;;;;21.00;95.30;;;;;;5062133;28;19924;-58
2022/04/13 06:37:13;;;;;;;;;;;21.00;95.50;;;;;;5052407;28;20050;-65
2022/04/13 06:39:41;;;;;;;;;;;21.10;95.70;;;;;;5061762;28;19952;-62
2022/04/13 06:42:09;;;;;;;;;;;21.10;95.90;;;;;;5056601;28;19924;-62
2022/04/13 06:44:37;;;;;;;;;;;21.20;96.10;;;;;;5058366;28;20232;-63
2022/04/13 06:47:04;;;;;;;;;;;21.10;96.30;;;;;;5057768;28;19924;-63
2022/04/13 06:49:31;;;;;;;;;;;21.20;96.60;;;;;;5062409;28;19932;-62
2022/04/13 06:51:58;;;;;;;;;;;21.20;96.50;;;;;;5057478;28;19929;-61
2022/04/13 06:54:27;;;;;;;;;;;21.20;96.20;;;;;;5057828;28;19924;-61
2022/04/13 06:56:54;;;;;;;;;;;21.20;96.10;;;;;;5056185;28;19932;-60
2022/04/13 06:59:22;;;;;;;;;;;21.10;96.20;;;;;;5061351;28;19948;-61
2022/04/13 07:01:49;;;;;;;;;;;21.20;96.50;;;;;;5060387;28;19924;-57
2022/04/13 07:04:17;;;;;;;;;;;21.20;96.90;;;;;;5061484;28;19947;-58
2022/04/13 07:06:45;;;;;;;;;;;21.30;97.00;;;;;;5057583;28;19928;-60
2022/04/13 07:09:12;;;;;;;;;;;21.30;97.40;;;;;;5053680;28;19935;-56
2022/04/13 07:11:39;;;;;;;;;;;21.30;97.70;;;;;;5058383;28;19924;-58
2022/04/13 07:14:07;;;;;;;;;;;21.30;98.00;;;;;;5057107;28;20257;-57
2022/04/13 07:16:34;;;;;;;;;;;21.30;98.10;;;;;;5062307;28;20421;-55
2022/04/13 07:19:01;;;;;;;;;;;21.30;98.30;;;;;;5062601;28;19931;-60
2022/04/13 07:21:28;;;;;;;;;;;21.30;98.60;;;;;;5063586;28;20387;-60
2022/04/13 07:24:15;;;;;;;;;;;21.30;98.80;;;;;;5060929;28;19924;-60
2022/04/13 07:26:42;;;;;;;;;;;21.40;99.10;;;;;;5058310;28;19925;-59
2022/04/13 07:29:09;;;;;;;;;;;21.30;99.20;;;;;;5064150;28;19931;-57
2022/04/13 07:31:36;;;;;;;;;;;21.30;99.50;;;;;;5064494;28;19928;-65
2022/04/13 07:34:04;;;;;;;;;;;21.30;99.60;;;;;;5065316;28;19924;-65
2022/04/13 07:36:31;;;;;;;;;;;21.40;99.90;;;;;;5064098;28;19925;-63
2022/04/13 07:38:58;;;;;;;;;;;21.40;99.90;;;;;;5061999;28;19931;-59
2022/04/13 07:41:25;;;;;;;;;;;21.40;99.90;;;;;;5058508;28;20341;-60
2022/04/13 07:43:52;;;;;;;;;;;21.30;99.90;;;;;;5061307;28;19932;-58
2022/04/13 07:46:19;;;;;;;;;;;21.40;99.90;;;;;;5061034;28;20354;-61
2022/04/13 07:48:47;;;;;;;;;;;21.30;99.90;;;;;;5062303;28;19924;-62
2022/04/13 07:51:14;;;;;;;;;;;21.30;99.90;;;;;;5059596;28;19928;-60
2022/04/13 07:53:41;;;;;;;;;;;21.30;99.90;;;;;;5061089;28;19927;-62
2022/04/13 07:56:08;;;;;;;;;;;21.30;99.90;;;;;;5063387;28;20342;-61
2022/04/13 07:58:36;;;;;;;;;;;21.30;99.90;;;;;;5067138;28;19924;-62
2022/04/13 08:01:03;;;;;;;;;;;21.30;99.90;;;;;;5061767;28;19924;-60
2022/04/13 08:03:30;;;;;;;;;;;21.30;99.90;;;;;;5061611;28;19976;-60
2022/04/13 08:06:03;;;;;;;;;;;21.30;99.90;;;;;;5046332;28;20342;-60
2022/04/13 08:08:30;;;;;;;;;;;21.30;99.90;;;;;;5065675;28;19924;-61
2022/04/13 08:10:57;;;;;;;;;;;21.40;99.90;;;;;;5064461;28;19944;-60
2022/04/13 08:13:24;;;;;;;;;;;21.40;99.90;;;;;;5045728;28;20405;-60
2022/04/13 08:16:12;;;;;;;;;;;21.40;99.90;;;;;;5066457;28;19924;-64
2022/04/13 08:18:39;;;;;;;;;;;21.40;99.90;;;;;;5061096;28;19939;-61
2022/04/13 08:21:06;;;;;;;;;;;21.40;99.90;;;;;;5057628;28;20050;-61
2022/04/13 08:23:33;;;;;;;;;;;21.40;99.90;;;;;;5063484;28;19924;-61
2022/04/13 08:26:00;;;;;;;;;;;21.40;99.90;;;;;;5054905;28;19924;-60
2022/04/13 08:28:28;;;;;;;;;;;21.40;99.90;;;;;;5063894;28;19924;-61
2022/04/13 08:30:55;;;;;;;;;;;21.40;99.90;;;;;;5057885;28;20327;-60
2022/04/13 08:33:22;;;;;;;;;;;21.40;99.90;;;;;;5058659;28;19932;-62
2022/04/13 08:35:50;;;;;;;;;;;21.40;99.90;;;;;;5063438;28;19920;-60
2022/04/13 08:38:18;;;;;;;;;;;21.40;99.90;;;;;;5063916;28;20424;-62
2022/04/13 08:40:49;;;;;;;;;;;21.40;99.90;;;;;;5062053;28;20011;-63
2022/04/13 08:43:21;;;;;;;;;;;21.40;99.90;;;;;;5065196;28;19958;-60
2022/04/13 08:45:56;;;;;;;;;;;21.40;99.90;;;;;;5045823;28;19932;-59
2022/04/13 08:48:24;;;;;;;;;;;21.40;99.90;;;;;;5059243;28;19924;-60
2022/04/13 08:51:06;;;;;;;;;;;21.50;99.90;;;;;;5042456;28;19925;-60
2022/04/13 08:53:35;;;;;;;;;;;21.50;99.90;;;;;;5063278;28;20207;-57
2022/04/13 08:56:03;;;;;;;;;;;21.60;99.90;;;;;;5063595;28;19920;-63
2022/04/13 08:58:41;;;;;;;;;;;21.50;99.90;;;;;;5062013;28;19921;-62
2022/04/13 09:01:16;;;;;;;;;;;21.50;99.90;;;;;;5064307;28;20486;-57
2022/04/13 09:03:49;;;;;;;;;;;21.40;99.90;;;;;;5057078;28;20436;-59
2022/04/13 09:06:20;;;;;;;;;;;21.40;99.90;;;;;;5065010;28;19935;-58
2022/04/13 09:08:47;;;;;;;;;;;21.40;99.90;;;;;;5063765;28;19951;-64
2022/04/13 09:11:14;;;;;;;;;;;21.40;99.90;;;;;;5062407;28;19920;-60
2022/04/13 09:13:43;;;;;;;;;;;21.40;99.90;;;;;;5059114;28;19932;-58
2022/04/13 09:16:11;;;;;;;;;;;21.40;99.90;;;;;;5061454;28;19931;-59
2022/04/13 09:18:38;;;;;;;;;;;21.40;99.90;;;;;;5053773;28;19931;-60
2022/04/13 09:21:06;;;;;;;;;;;21.40;99.90;;;;;;5060628;28;19927;-61
2022/04/13 09:23:33;;;;;;;;;;;21.40;99.90;;;;;;5053697;28;19932;-60
2022/04/13 09:26:01;;;;;;;;;;;21.40;99.90;;;;;;5063805;28;19925;-59
2022/04/13 09:28:28;;;;;;;;;;;21.40;99.90;;;;;;5063360;28;19935;-58
2022/04/13 09:30:56;;;;;;;;;;;21.40;99.90;;;;;;5059927;28;20594;-58
2022/04/13 09:33:26;;;;;;;;;;;21.30;99.90;;;;;;5050952;28;19931;-59
2022/04/13 09:35:53;;;;;;;;;;;21.30;99.90;;;;;;5046720;28;19928;-61
2022/04/13 09:38:20;;;;;;;;;;;21.30;99.90;;;;;;5045403;28;19932;-60
2022/04/13 09:40:49;;;;;;;;;;;21.30;99.90;;;;;;5051330;28;19925;-60
2022/04/13 09:43:18;;;;;;;;;;;21.20;99.90;;;;;;5056653;28;20295;-60
2022/04/13 09:45:46;;;;;;;;;;;21.30;99.90;;;;;;5056593;28;20556;-59
2022/04/13 09:48:15;;;;;;;;;;;21.30;99.90;;;;;;5058012;28;19924;-58
2022/04/13 09:50:43;;;;;;;;;;;21.30;99.90;;;;;;5055867;28;20213;-59
2022/04/13 09:53:11;;;;;;;;;;;21.30;99.90;;;;;;5063435;28;19935;-57
2022/04/13 09:55:40;;;;;;;;;;;21.30;99.90;;;;;;5058238;28;19924;-59
2022/04/13 09:58:11;;;;;;;;;;;21.30;99.90;;;;;;5060881;28;19928;-57
2022/04/13 10:00:38;;;;;;;;;;;21.30;99.90;;;;;;5061956;28;19928;-58
2022/04/13 10:03:07;;;;;;;;;;;21.30;99.90;;;;;;5042448;28;19924;-61
2022/04/13 10:05:35;;;;;;;;;;;21.30;99.90;;;;;;5054235;28;19936;-59
2022/04/13 10:08:05;;;;;;;;;;;21.30;99.90;;;;;;5064784;28;19925;-61
2022/04/13 10:10:33;;;;;;;;;;;21.30;99.90;;;;;;5063741;28;19925;-62
2022/04/13 10:13:00;;;;;;;;;;;21.30;99.90;;;;;;5047426;28;19920;-60
2022/04/13 10:15:27;;;;;;;;;;;21.30;99.90;;;;;;5061070;28;19925;-59
2022/04/13 10:18:01;;;;;;;;;;;21.40;99.90;;;;;;5065553;28;19928;-59
2022/04/13 10:20:45;;;;;;;;;;;21.40;99.90;;;;;;5067037;28;20027;-58
2022/04/13 10:23:12;;;;;;;;;;;21.30;99.90;;;;;;5066400;28;19931;-58
2022/04/13 10:25:40;;;;;;;;;;;21.40;99.90;;;;;;5064350;28;19944;-57
2022/04/13 10:28:08;;;;;;;;;;;21.30;99.90;;;;;;5059456;28;20377;-55
2022/04/13 10:30:36;;;;;;;;;;;21.30;99.90;;;;;;5059184;28;19924;-59
2022/04/13 10:33:04;;;;;;;;;;;21.30;99.90;;;;;;5059077;28;19929;-59
2022/04/13 10:35:33;;;;;;;;;;;21.30;99.90;;;;;;5060287;28;20397;-58
2022/04/13 10:38:01;;;;;;;;;;;21.40;99.90;;;;;;5061195;28;19947;-61
2022/04/13 10:40:30;;;;;;;;;;;21.40;99.90;;;;;;5057812;28;19925;-55
2022/04/13 10:43:02;;;;;;;;;;;21.30;99.90;;;;;;5063889;28;19928;-59
2022/04/13 10:45:30;;;;;;;;;;;21.40;99.90;;;;;;5052009;28;19920;-59
2022/04/13 10:48:07;;;;;;;;;;;21.40;99.90;;;;;;5063128;28;19944;-59
2022/04/13 10:50:40;;;;;;;;;;;21.30;99.90;;;;;;5059890;28;19924;-58
2022/04/13 10:53:26;;;;;;;;;;;21.30;99.90;;;;;;5061833;28;19929;-59
2022/04/13 10:55:56;;;;;;;;;;;21.40;99.90;;;;;;5066446;28;19947;-59
2022/04/13 10:58:24;;;;;;;;;;;21.30;99.90;;;;;;5063168;28;19924;-58
2022/04/13 11:00:56;;;;;;;;;;;21.30;99.90;;;;;;5058349;28;19943;-58
2022/04/13 11:03:25;;;;;;;;;;;21.30;99.90;;;;;;5065339;28;19947;-60
2022/04/13 11:05:53;;;;;;;;;;;21.30;99.90;;;;;;5063173;28;20297;-60
2022/04/13 11:08:20;;;;;;;;;;;21.30;99.90;;;;;;5062571;28;20345;-60
2022/04/13 11:10:48;;;;;;;;;;;21.30;99.90;;;;;;5062905;28;19924;-62
2022/04/13 11:13:16;;;;;;;;;;;21.40;99.90;;;;;;5063129;28;20297;-60
2022/04/13 11:15:48;;;;;;;;;;;21.30;99.90;;;;;;5056036;28;19956;-57
2022/04/13 11:18:19;;;;;;;;;;;21.30;99.90;;;;;;5065026;28;19939;-55
2022/04/13 11:20:58;;;;;;;;;;;21.30;99.90;;;;;;5057694;28;20003;-57
2022/04/13 11:23:43;;;;;;;;;;;21.30;99.90;;;;;;5060444;28;19944;-59
2022/04/13 11:26:10;;;;;;;;;;;21.20;99.90;;;;;;5067680;28;20001;-58
2022/04/13 11:28:38;;;;;;;;;;;21.20;99.90;;;;;;5062776;28;19925;-58
2022/04/13 11:31:06;;;;;;;;;;;21.20;99.90;;;;;;5064916;28;19920;-60
2022/04/13 11:33:39;;;;;;;;;;;21.10;99.90;;;;;;5062989;28;19924;-60
2022/04/13 11:36:07;;;;;;;;;;;21.10;99.90;;;;;;5067194;28;19932;-61
2022/04/13 11:38:54;;;;;;;;;;;21.10;99.90;;;;;;5061921;28;19924;-60
2022/04/13 11:41:23;;;;;;;;;;;21.10;99.90;;;;;;5049494;28;19924;-61
2022/04/13 11:43:50;;;;;;;;;;;21.10;99.90;;;;;;5062334;28;20011;-59
2022/04/13 11:46:37;;;;;;;;;;;21.10;99.90;;;;;;5059234;28;19943;-58
2022/04/13 11:49:08;;;;;;;;;;;21.10;99.90;;;;;;5056678;28;20412;-59
2022/04/13 11:51:36;;;;;;;;;;;21.10;99.90;;;;;;5064676;28;20395;-61
2022/04/13 11:54:09;;;;;;;;;;;21.10;99.90;;;;;;5060728;28;20381;-59
2022/04/13 11:56:37;;;;;;;;;;;21.10;99.90;;;;;;5061316;28;19928;-61
2022/04/13 11:59:05;;;;;;;;;;;21.10;99.90;;;;;;5061212;28;20341;-60
2022/04/13 12:01:35;;;;;;;;;;;21.10;99.90;;;;;;5060111;28;19921;-61
2022/04/13 12:04:03;;;;;;;;;;;21.10;99.90;;;;;;5068987;28;19921;-60
2022/04/13 12:06:31;;;;;;;;;;;21.10;99.90;;;;;;5046867;28;19920;-61
2022/04/13 12:08:59;;;;;;;;;;;21.10;99.90;;;;;;5066786;28;19924;-59
2022/04/13 12:11:40;;;;;;;;;;;21.10;99.90;;;;;;5050427;28;20012;-57
2022/04/13 12:14:09;;;;;;;;;;;21.10;99.90;;;;;;5067908;28;19928;-59
2022/04/13 12:16:39;;;;;;;;;;;21.10;99.90;;;;;;5050223;28;19920;-60
2022/04/13 12:19:09;;;;;;;;;;;21.10;99.90;;;;;;5061539;28;19925;-59
2022/04/13 12:21:37;;;;;;;;;;;21.10;99.90;;;;;;5062219;28;19935;-59
2022/04/13 12:24:08;;;;;;;;;;;21.10;99.90;;;;;;5067815;28;19925;-60
2022/04/13 12:26:38;;;;;;;;;;;21.10;99.90;;;;;;5062393;28;19929;-61
2022/04/13 12:29:13;;;;;;;;;;;21.10;99.90;;;;;;5061649;28;19920;-60
2022/04/13 12:31:51;;;;;;;;;;;21.10;99.90;;;;;;5060300;28;19924;-59
2022/04/13 12:34:19;;;;;;;;;;;21.10;99.90;;;;;;5063825;28;19924;-59
2022/04/13 12:36:56;;;;;;;;;;;21.10;99.90;;;;;;5062094;28;20389;-59
2022/04/13 12:39:27;;;;;;;;;;;21.10;99.90;;;;;;5064387;28;20448;-59
2022/04/13 12:41:54;;;;;;;;;;;21.10;99.90;;;;;;5059752;28;19931;-58
2022/04/13 12:44:21;;;;;;;;;;;21.10;99.90;;;;;;5062880;28;19924;-55
2022/04/13 12:46:49;;;;;;;;;;;21.10;99.90;;;;;;5063960;28;19924;-62
2022/04/13 12:49:21;;;;;;;;;;;21.10;99.90;;;;;;5063119;28;19924;-59
2022/04/13 12:51:49;;;;;;;;;;;21.10;99.90;;;;;;5055277;28;19924;-61
2022/04/13 12:54:17;;;;;;;;;;;21.10;99.90;;;;;;5057008;28;20401;-60
2022/04/13 12:56:49;;;;;;;;;;;21.10;99.90;;;;;;5065560;28;20385;-60
2022/04/13 12:59:23;;;;;;;;;;;21.10;99.90;;;;;;5060960;28;19924;-61
2022/04/13 13:01:51;;;;;;;;;;;21.10;99.90;;;;;;5039938;28;20294;-58
2022/04/13 13:04:20;;;;;;;;;;;21.20;99.90;;;;;;5059756;28;19931;-59
2022/04/13 13:07:04;;;;;;;;;;;21.20;99.90;;;;;;5062257;28;19924;-59
2022/04/13 13:09:33;;;;;;;;;;;21.20;99.90;;;;;;5062299;28;20417;-59
2022/04/13 13:12:01;;;;;;;;;;;21.30;99.90;;;;;;5064419;28;19920;-59
2022/04/13 13:14:35;;;;;;;;;;;21.30;99.90;;;;;;5063700;28;19924;-60
2022/04/13 13:17:18;;;;;;;;;;;21.30;99.90;;;;;;5062207;28;19927;-59
2022/04/13 13:19:46;;;;;;;;;;;21.30;99.90;;;;;;5065322;28;19943;-57
2022/04/13 13:22:15;;;;;;;;;;;21.30;99.90;;;;;;5058460;28;19925;-59
2022/04/13 13:24:42;;;;;;;;;;;21.30;99.90;;;;;;5059027;28;19925;-58
2022/04/13 13:27:10;;;;;;;;;;;21.40;99.90;;;;;;5064854;28;19924;-57
2022/04/13 13:29:46;;;;;;;;;;;21.40;99.90;;;;;;5060693;28;19940;-58
2022/04/13 13:32:14;;;;;;;;;;;21.40;99.90;;;;;;5068945;28;19924;-60
2022/04/13 13:35:09;;;;;;;;;;;21.40;99.90;;;;;;5058337;28;19925;-54
2022/04/13 13:37:38;;;;;;;;;;;21.40;99.90;;;;;;5060604;28;19924;-59
2022/04/13 13:40:25;;;;;;;;;;;21.50;99.90;;;;;;5060336;28;19924;-56
2022/04/13 13:42:52;;;;;;;;;;;21.50;99.90;;;;;;5063304;28;19924;-55
2022/04/13 13:45:19;;;;;;;;;;;21.50;99.90;;;;;;5057904;28;20293;-56
2022/04/13 13:47:47;;;;;;;;;;;21.50;99.90;;;;;;5060598;28;19955;-61
2022/04/13 13:50:14;;;;;;;;;;;21.50;99.90;;;;;;5046685;28;20305;-60
2022/04/13 13:52:41;;;;;;;;;;;21.60;99.90;;;;;;5059800;28;19927;-57
2022/04/13 13:55:09;;;;;;;;;;;21.60;99.90;;;;;;5059186;28;20413;-58
2022/04/13 13:57:36;;;;;;;;;;;21.60;99.90;;;;;;5060040;28;19927;-59
2022/04/13 14:00:08;;;;;;;;;;;21.60;99.90;;;;;;5056347;28;19924;-60
2022/04/13 14:02:35;;;;;;;;;;;21.60;99.90;;;;;;5058815;28;19932;-58
2022/04/13 14:05:03;;;;;;;;;;;21.60;99.90;;;;;;5054877;28;20423;-58
2022/04/13 14:07:31;;;;;;;;;;;21.70;99.90;;;;;;5054259;28;20401;-61
2022/04/13 14:09:58;;;;;;;;;;;21.70;99.90;;;;;;5060443;28;19925;-60
2022/04/13 14:12:25;;;;;;;;;;;21.70;99.90;;;;;;5053655;28;20254;-59
2022/04/13 14:14:54;;;;;;;;;;;21.70;99.90;;;;;;5064336;28;19924;-58
2022/04/13 14:17:22;;;;;;;;;;;21.80;99.90;;;;;;5064693;28;20009;-59
2022/04/13 14:19:49;;;;;;;;;;;21.80;99.90;;;;;;5063487;28;20262;-60
2022/04/13 14:22:16;;;;;;;;;;;21.80;99.90;;;;;;5060553;28;19967;-59
2022/04/13 14:24:43;;;;;;;;;;;21.80;99.90;;;;;;5057304;28;20388;-59